Portada
METAR-TAF:

METAR-TAF

Aeroports :

Talara, Perú

latitud: 04-34S, longitud: 081-15W, altitud: 85 m

Observació

L'informe es va fer fa 21 hores i 40 minuts, a les 21:00 UTC
Vent 9 kt del Oest/Sud-Oest
Temperatura 27°C
Humitat 66%
Pressió 1008 hPa
Visibilitat 10 km o més
sense núvols per sota de 1500 mi sense presència de cumulonimbus.

METAR: SPYL 282100Z 24009KT CAVOK 27/20 Q1008 RMK TX35.2 BIRD HAZARD RWY 17/35 PP000

Hora: 13:40 (18:40 UTC)

Pronòstic

L'informe es va fer fa 7 hores i 40 minuts, a les 11:00 UTC
Pronòstic vàlid del 29 a les 12 UTC al 30 a les 12 UTC
Vent 11 kt del Sud/Sud-Est
Visibilitat 10 km o més
sense núvols per sota de 1500 mi sense presència de cumulonimbus.
Evolucionant progressivament
l' 29 a les 17 UTC al 29 a les 19 UTC
Vent 15 kt del Sud-Oest

TAF: SPYL 291100Z 2912/3012 15011KT CAVOK TX33/2919Z TN23/3011Z BECMG 2917/2919 22015KT

Observacions i pronòstics meteorològics de més de 4000 aeroports (METAR i TAF).

Les estacions disponibles són els punts grocs i vermells al mapa.

Posi el ratolí al punt desitjat per veure el nom de l'estació.

Feu clic per veure les observacions i els pronòstics meteorològics.

Per canviar el mapa: feu clic els botons verds amb una creu de color negre per apropar; al botó verd amb un guió per allunyar la imatge; o en les fletxes verdes per a mapes adjacents.


METAR-TAF: